Time;durP1;ratioP1;P1;durP2;ratioP2;P2;SDS_P1;SDS_P2;PMS_P1;PMS_P2;Temp;Humidity;BMP_temperature;BMP_pressure;BME280_temperature;BME280_humidity;BME280_pressure;Samples;Min_cycle;Max_cycle;Signal;HPM_P1;HPM_P2
2024/04/09 00:02:04;;;;;;;11.00;4.40;;;20.40;99.90;;;;;;5409051;26;20665;-73
2024/04/09 00:04:30;;;;;;;11.27;4.57;;;20.40;99.90;;;;;;5409805;26;20933;-73
2024/04/09 00:06:58;;;;;;;11.35;4.20;;;20.30;99.90;;;;;;5409941;26;20221;-73
2024/04/09 00:09:29;;;;;;;8.38;3.88;;;20.30;99.90;;;;;;5410328;26;20590;-73
2024/04/09 00:11:58;;;;;;;17.63;4.97;;;20.30;99.90;;;;;;5376834;26;20658;-72
2024/04/09 00:14:24;;;;;;;12.27;4.90;;;20.30;99.90;;;;;;5374884;26;20214;-73
2024/04/09 00:16:57;;;;;;;11.90;4.57;;;20.30;99.90;;;;;;5376267;26;20759;-73
2024/04/09 00:19:24;;;;;;;10.85;4.70;;;20.20;99.90;;;;;;5444608;26;20247;-73
2024/04/09 00:21:54;;;;;;;15.13;4.50;;;20.20;99.90;;;;;;5425728;26;20242;-72
2024/04/09 00:24:21;;;;;;;8.37;4.40;;;20.10;99.90;;;;;;5409826;26;20233;-71
2024/04/09 00:26:50;;;;;;;10.32;4.50;;;20.10;99.90;;;;;;5382089;26;20242;-71
2024/04/09 00:29:16;;;;;;;11.30;4.32;;;20.10;99.90;;;;;;5378875;26;20230;-71
2024/04/09 00:31:45;;;;;;;10.45;3.90;;;20.10;99.90;;;;;;5374498;26;20285;-71
2024/04/09 00:34:13;;;;;;;10.52;4.18;;;20.10;99.90;;;;;;5374669;26;20230;-72
2024/04/09 00:36:42;;;;;;;12.75;4.70;;;20.00;99.90;;;;;;5376638;26;20230;-71
2024/04/09 00:39:19;;;;;;;6.72;4.20;;;20.10;99.90;;;;;;5409737;26;20217;-73
2024/04/09 00:41:49;;;;;;;9.32;5.03;;;20.10;99.90;;;;;;5401035;26;20582;-72
2024/04/09 00:44:15;;;;;;;11.18;4.68;;;20.00;99.90;;;;;;5409862;26;20752;-72
2024/04/09 00:46:46;;;;;;;11.30;5.22;;;20.00;99.90;;;;;;5409896;26;20249;-72
2024/04/09 00:49:15;;;;;;;13.25;4.20;;;20.00;99.90;;;;;;5409890;26;20229;-73
2024/04/09 00:51:47;;;;;;;7.60;4.90;;;20.00;99.90;;;;;;5409264;26;20732;-72
2024/04/09 00:54:13;;;;;;;10.88;5.22;;;20.00;99.90;;;;;;5409831;26;20852;-72
2024/04/09 00:56:43;;;;;;;9.27;4.03;;;19.90;99.90;;;;;;5401943;26;20241;-72
2024/04/09 00:59:12;;;;;;;13.65;4.50;;;19.90;99.90;;;;;;5409403;26;20400;-73
2024/04/09 01:01:42;;;;;;;14.48;4.40;;;19.90;99.90;;;;;;5374446;26;20316;-72
2024/04/09 01:04:08;;;;;;;13.27;4.65;;;19.90;99.90;;;;;;5373915;26;20851;-72
2024/04/09 01:06:40;;;;;;;10.52;4.55;;;19.90;99.90;;;;;;5373361;26;20234;-72
2024/04/09 01:09:06;;;;;;;11.48;4.18;;;19.90;99.90;;;;;;5376341;26;20242;-73
2024/04/09 01:11:35;;;;;;;12.48;4.75;;;19.90;99.90;;;;;;5374494;26;20234;-73
2024/04/09 01:14:01;;;;;;;7.63;4.15;;;19.80;99.90;;;;;;5387994;26;20233;-73
2024/04/09 01:16:29;;;;;;;16.67;4.65;;;19.80;99.90;;;;;;5409087;26;20229;-73
2024/04/09 01:18:55;;;;;;;13.85;4.38;;;19.80;99.90;;;;;;5436975;26;20244;-73
2024/04/09 01:21:24;;;;;;;8.33;4.27;;;19.80;99.90;;;;;;5444670;26;20269;-73
2024/04/09 01:23:53;;;;;;;8.65;4.10;;;19.80;99.90;;;;;;5445186;26;20228;-73
2024/04/09 01:26:23;;;;;;;9.90;4.28;;;19.80;99.90;;;;;;5409145;26;20600;-73
2024/04/09 01:28:49;;;;;;;11.53;4.97;;;19.70;99.90;;;;;;5408791;26;20229;-72
2024/04/09 01:31:18;;;;;;;14.20;4.70;;;19.70;99.90;;;;;;5408708;26;20681;-72
2024/04/09 01:33:45;;;;;;;9.63;4.68;;;19.70;99.90;;;;;;5400845;26;20274;-72
2024/04/09 01:36:14;;;;;;;15.02;4.53;;;19.70;99.90;;;;;;5408094;26;20268;-72
2024/04/09 01:38:40;;;;;;;7.95;4.35;;;19.60;99.90;;;;;;5408439;26;20344;-72
2024/04/09 01:41:11;;;;;;;9.13;4.53;;;19.60;99.90;;;;;;5393297;26;20300;-72
2024/04/09 01:43:37;;;;;;;13.00;4.60;;;19.60;99.90;;;;;;5377263;26;20285;-72
2024/04/09 01:46:10;;;;;;;7.45;4.13;;;19.60;99.90;;;;;;5373147;26;20831;-72
2024/04/09 01:48:37;;;;;;;7.27;4.53;;;19.60;99.90;;;;;;5373164;26;20317;-72
2024/04/09 01:51:11;;;;;;;12.33;4.27;;;19.60;99.90;;;;;;5372888;26;20273;-73
2024/04/09 01:53:41;;;;;;;10.17;4.20;;;19.60;99.90;;;;;;5372901;26;20230;-73
2024/04/09 01:56:12;;;;;;;16.13;5.10;;;19.50;99.90;;;;;;5386665;26;20314;-73
2024/04/09 01:58:39;;;;;;;10.67;4.83;;;19.50;99.90;;;;;;5380561;26;20575;-73
2024/04/09 02:01:09;;;;;;;6.43;4.27;;;19.50;99.90;;;;;;5372641;26;20770;-72
2024/04/09 02:03:36;;;;;;;9.90;4.43;;;19.50;99.90;;;;;;5399449;26;20237;-72
2024/04/09 02:06:05;;;;;;;5.80;4.35;;;19.50;99.90;;;;;;5407728;26;20229;-73
2024/04/09 02:08:31;;;;;;;12.20;4.47;;;19.40;99.90;;;;;;5408043;26;20241;-74
2024/04/09 02:11:01;;;;;;;6.95;4.20;;;19.40;99.90;;;;;;5392391;26;20292;-74
2024/04/09 02:13:30;;;;;;;10.10;4.20;;;19.40;99.90;;;;;;5413840;26;20309;-74
2024/04/09 02:16:01;;;;;;;11.35;4.15;;;19.30;99.90;;;;;;5426323;26;20352;-73
2024/04/09 02:18:27;;;;;;;8.40;3.92;;;19.30;99.90;;;;;;5432714;26;20726;-73
2024/04/09 02:20:56;;;;;;;6.35;3.92;;;19.40;99.90;;;;;;5443836;26;20232;-73
2024/04/09 02:23:22;;;;;;;5.63;4.07;;;19.40;99.90;;;;;;5405692;26;20578;-73
2024/04/09 02:25:50;;;;;;;7.93;4.63;;;19.40;99.90;;;;;;5408615;26;20289;-73
2024/04/09 02:28:16;;;;;;;8.63;4.20;;;19.40;99.90;;;;;;5407019;26;20236;-72
2024/04/09 02:30:47;;;;;;;6.97;4.53;;;19.40;99.90;;;;;;5375473;26;20289;-72
2024/04/09 02:33:13;;;;;;;12.00;4.80;;;19.40;99.90;;;;;;5379296;26;20376;-72
2024/04/09 02:35:42;;;;;;;10.43;4.38;;;19.40;99.90;;;;;;5404374;26;20242;-74
2024/04/09 02:38:09;;;;;;;11.18;4.45;;;19.40;99.90;;;;;;5398819;26;20241;-72
2024/04/09 02:40:38;;;;;;;9.40;4.47;;;19.40;99.90;;;;;;5408851;26;20267;-72
2024/04/09 02:43:04;;;;;;;8.73;4.80;;;19.40;99.90;;;;;;5400926;26;20237;-72
2024/04/09 02:45:32;;;;;;;13.27;4.07;;;19.40;99.90;;;;;;5408781;26;20233;-72
2024/04/09 02:48:01;;;;;;;9.65;4.35;;;19.40;99.90;;;;;;5421574;26;21120;-73
2024/04/09 02:50:29;;;;;;;7.90;4.67;;;19.40;99.90;;;;;;5444776;26;20313;-72
2024/04/09 02:52:55;;;;;;;7.13;4.27;;;19.40;99.90;;;;;;5444069;26;20228;-71
2024/04/09 02:55:24;;;;;;;6.63;3.97;;;19.40;99.90;;;;;;5444608;26;20278;-71
2024/04/09 02:57:50;;;;;;;5.77;4.07;;;19.40;99.90;;;;;;5421313;26;20783;-71
2024/04/09 03:00:21;;;;;;;7.72;3.97;;;19.40;99.90;;;;;;5408216;26;20240;-72
2024/04/09 03:02:50;;;;;;;8.20;4.40;;;19.40;99.90;;;;;;5395438;26;20246;-71
2024/04/09 03:05:24;;;;;;;7.82;4.53;;;19.30;99.90;;;;;;5401221;26;20237;-71
2024/04/09 03:07:52;;;;;;;8.73;5.03;;;19.30;99.90;;;;;;5374423;26;20238;-71
2024/04/09 03:10:21;;;;;;;8.57;4.07;;;19.30;99.90;;;;;;5374594;26;20238;-72
2024/04/09 03:12:47;;;;;;;11.20;4.63;;;19.30;99.90;;;;;;5375386;26;20273;-71
2024/04/09 03:15:16;;;;;;;7.80;4.05;;;19.30;99.90;;;;;;5375390;26;20716;-71
2024/04/09 03:17:42;;;;;;;9.43;4.70;;;19.30;99.90;;;;;;5386054;26;20263;-71
2024/04/09 03:20:12;;;;;;;6.32;4.53;;;19.20;99.90;;;;;;5410129;26;20238;-71
2024/04/09 03:22:40;;;;;;;6.28;4.03;;;19.20;99.90;;;;;;5410456;26;20811;-71
2024/04/09 03:25:09;;;;;;;6.97;4.07;;;19.20;99.90;;;;;;5410880;26;20264;-72
2024/04/09 03:27:36;;;;;;;6.43;4.83;;;19.10;99.90;;;;;;5410699;26;20279;-72
2024/04/09 03:30:05;;;;;;;8.55;4.45;;;19.10;99.90;;;;;;5410811;26;20237;-72
2024/04/09 03:32:31;;;;;;;6.27;4.33;;;19.10;99.90;;;;;;5411044;26;20229;-72
2024/04/09 03:35:00;;;;;;;6.43;4.03;;;19.00;99.90;;;;;;5410198;26;20578;-71
2024/04/09 03:37:26;;;;;;;4.50;4.10;;;19.00;99.90;;;;;;5409883;26;20825;-72
2024/04/09 03:39:58;;;;;;;5.80;4.10;;;19.00;99.90;;;;;;5410864;26;20272;-72
2024/04/09 03:42:27;;;;;;;8.10;4.57;;;18.90;99.90;;;;;;5410698;26;20333;-72
2024/04/09 03:44:53;;;;;;;9.40;4.32;;;18.90;99.90;;;;;;5410955;26;20233;-71
2024/04/09 03:47:21;;;;;;;7.55;4.60;;;18.90;99.90;;;;;;5414195;26;20576;-72
2024/04/09 03:49:47;;;;;;;5.93;4.23;;;18.80;99.90;;;;;;5446553;26;20263;-72
2024/04/09 03:52:16;;;;;;;7.70;4.30;;;18.80;99.90;;;;;;5445667;26;20228;-72
2024/04/09 03:54:41;;;;;;;8.73;4.23;;;18.70;99.90;;;;;;5445948;26;20611;-71
2024/04/09 03:57:13;;;;;;;8.10;4.47;;;18.70;99.90;;;;;;5445655;26;20224;-71
2024/04/09 03:59:39;;;;;;;6.90;4.70;;;18.70;99.90;;;;;;5446085;26;20229;-71
2024/04/09 04:02:08;;;;;;;6.70;4.63;;;18.60;99.90;;;;;;5445895;26;20296;-71
2024/04/09 04:04:34;;;;;;;8.17;4.53;;;18.60;99.90;;;;;;5446376;26;20262;-71
2024/04/09 04:07:03;;;;;;;6.07;4.63;;;18.60;99.90;;;;;;5445608;26;20235;-72
2024/04/09 04:09:29;;;;;;;8.13;5.30;;;18.50;99.90;;;;;;5437305;26;20241;-72
2024/04/09 04:11:57;;;;;;;5.77;4.63;;;18.60;99.90;;;;;;5410062;26;20259;-72
2024/04/09 04:14:26;;;;;;;10.60;4.87;;;18.60;99.90;;;;;;5409672;26;20250;-71
2024/04/09 04:16:55;;;;;;;8.07;4.73;;;18.60;99.90;;;;;;5409929;26;20217;-72
2024/04/09 04:19:23;;;;;;;5.90;4.63;;;18.60;99.90;;;;;;5443833;26;20244;-72
2024/04/09 04:21:49;;;;;;;7.97;5.13;;;18.60;99.90;;;;;;5440813;26;20279;-71
2024/04/09 04:24:17;;;;;;;12.03;5.83;;;18.60;99.90;;;;;;5409622;26;20682;-71
2024/04/09 04:26:44;;;;;;;8.67;5.10;;;18.60;99.90;;;;;;5409860;26;20230;-71
2024/04/09 04:29:12;;;;;;;9.27;5.30;;;18.60;99.90;;;;;;5409334;26;20269;-72
2024/04/09 04:31:41;;;;;;;11.20;4.97;;;18.60;99.90;;;;;;5409353;26;20615;-72
2024/04/09 04:34:09;;;;;;;9.20;5.23;;;18.60;99.90;;;;;;5409328;26;20272;-72
2024/04/09 04:36:35;;;;;;;7.90;5.33;;;18.50;99.90;;;;;;5409111;26;20600;-72
2024/04/09 04:39:04;;;;;;;7.07;5.43;;;18.50;99.90;;;;;;5409426;26;20233;-72
2024/04/09 04:41:30;;;;;;;8.83;5.83;;;18.50;99.90;;;;;;5409225;26;20229;-72
2024/04/09 04:43:59;;;;;;;6.00;5.23;;;18.50;99.90;;;;;;5408923;26;20229;-72
2024/04/09 04:46:25;;;;;;;11.20;6.00;;;18.50;99.90;;;;;;5409301;26;20367;-72
2024/04/09 04:48:56;;;;;;;17.00;5.83;;;18.50;99.90;;;;;;5408049;26;20654;-72
2024/04/09 04:51:22;;;;;;;14.27;5.57;;;18.50;99.90;;;;;;5408942;26;20228;-72
2024/04/09 04:53:50;;;;;;;20.67;6.20;;;18.40;99.90;;;;;;5408750;26;20712;-72
2024/04/09 04:56:16;;;;;;;10.27;5.77;;;18.40;99.90;;;;;;5408835;26;20233;-72
2024/04/09 04:58:45;;;;;;;10.30;5.47;;;18.40;99.90;;;;;;5408984;26;20272;-72
2024/04/09 05:01:11;;;;;;;9.07;5.43;;;18.40;99.90;;;;;;5408837;26;20229;-72
2024/04/09 05:03:39;;;;;;;9.70;5.77;;;18.40;99.90;;;;;;5405155;26;20279;-72
2024/04/09 05:06:08;;;;;;;26.67;6.13;;;18.40;99.90;;;;;;5393962;26;20234;-72
2024/04/09 05:08:37;;;;;;;21.33;6.60;;;18.40;99.90;;;;;;5373167;26;20296;-72
2024/04/09 05:11:07;;;;;;;11.20;6.33;;;18.40;99.90;;;;;;5389458;26;20943;-72
2024/04/09 05:13:36;;;;;;;22.67;7.07;;;18.40;99.90;;;;;;5408433;26;20241;-72
2024/04/09 05:16:03;;;;;;;21.97;6.70;;;18.40;99.90;;;;;;5408780;26;20740;-72
2024/04/09 05:18:31;;;;;;;16.20;6.73;;;18.40;99.90;;;;;;5418822;26;20287;-72
2024/04/09 05:20:57;;;;;;;17.37;10.13;;;18.40;99.90;;;;;;5408017;26;20699;-72
2024/04/09 05:23:29;;;;;;;16.83;9.13;;;18.40;99.90;;;;;;5408627;26;20334;-72
2024/04/09 05:25:56;;;;;;;17.30;7.70;;;18.40;99.90;;;;;;5408839;26;20285;-72
2024/04/09 05:28:24;;;;;;;16.57;7.47;;;18.30;99.90;;;;;;5408340;26;20587;-72
2024/04/09 05:30:50;;;;;;;17.27;8.20;;;18.30;99.90;;;;;;5408638;26;20587;-72
2024/04/09 05:33:19;;;;;;;21.23;8.13;;;18.40;99.90;;;;;;5408302;26;20233;-72
2024/04/09 05:35:45;;;;;;;17.50;7.53;;;18.40;99.90;;;;;;5408660;26;20229;-72
2024/04/09 05:38:13;;;;;;;10.47;6.83;;;18.40;99.90;;;;;;5408100;26;21085;-72
2024/04/09 05:40:42;;;;;;;11.60;7.33;;;18.40;99.90;;;;;;5408380;26;20232;-72
2024/04/09 05:43:10;;;;;;;10.83;6.90;;;18.50;99.90;;;;;;5408228;26;20842;-73
2024/04/09 05:45:36;;;;;;;18.90;6.50;;;18.60;99.90;;;;;;5408259;26;20340;-72
2024/04/09 05:48:05;;;;;;;9.53;6.67;;;18.60;99.90;;;;;;5422363;26;20236;-72
2024/04/09 05:50:31;;;;;;;15.03;6.40;;;18.70;99.90;;;;;;5443785;26;20228;-72
2024/04/09 05:52:59;;;;;;;12.30;6.93;;;18.70;99.90;;;;;;5443340;26;20274;-72
2024/04/09 05:55:25;;;;;;;14.27;6.80;;;18.80;99.90;;;;;;5443971;26;20662;-72
2024/04/09 05:57:56;;;;;;;11.83;6.87;;;18.80;99.90;;;;;;5443999;26;20232;-72
2024/04/09 06:00:22;;;;;;;13.27;6.63;;;18.80;99.90;;;;;;5445488;26;20231;-72
2024/04/09 06:02:51;;;;;;;14.53;6.70;;;18.90;99.90;;;;;;5426803;26;20767;-72
2024/04/09 06:05:17;;;;;;;20.73;7.73;;;18.90;99.90;;;;;;5411211;26;20225;-72
2024/04/09 06:07:46;;;;;;;31.30;8.10;;;18.90;99.90;;;;;;5410840;26;20261;-72
2024/04/09 06:10:15;;;;;;;16.97;7.07;;;19.00;99.90;;;;;;5411463;26;20561;-72
2024/04/09 06:12:43;;;;;;;11.97;6.03;;;19.00;99.90;;;;;;5411371;26;20225;-72
2024/04/09 06:15:12;;;;;;;6.10;5.60;;;19.00;99.90;;;;;;5411187;26;20241;-72
2024/04/09 06:17:40;;;;;;;10.37;5.67;;;19.00;99.90;;;;;;5419586;26;20255;-73
2024/04/09 06:20:07;;;;;;;7.13;5.80;;;19.10;99.90;;;;;;5446925;26;20266;-72
2024/04/09 06:22:36;;;;;;;9.47;4.83;;;19.10;99.90;;;;;;5428868;26;20278;-72
2024/04/09 06:25:06;;;;;;;5.82;5.05;;;19.20;99.90;;;;;;5411032;26;20234;-72
2024/04/09 06:27:32;;;;;;;7.70;5.00;;;19.20;99.90;;;;;;5410967;26;20221;-72
2024/04/09 06:30:01;;;;;;;6.87;5.33;;;19.20;99.90;;;;;;5411296;26;20217;-72
2024/04/09 06:32:30;;;;;;;7.33;4.77;;;19.20;99.90;;;;;;5411017;26;20225;-72
2024/04/09 06:34:58;;;;;;;7.35;5.10;;;19.30;99.90;;;;;;5410749;26;20229;-72
2024/04/09 06:37:24;;;;;;;6.23;4.83;;;19.30;99.90;;;;;;5410579;26;20233;-72
2024/04/09 06:39:53;;;;;;;8.70;4.88;;;19.40;99.90;;;;;;5410619;26;20233;-72
2024/04/09 06:42:19;;;;;;;5.18;4.60;;;19.40;99.90;;;;;;5410387;26;20478;-72
2024/04/09 06:44:48;;;;;;;5.90;4.72;;;19.40;99.90;;;;;;5411305;26;20230;-72
2024/04/09 06:47:14;;;;;;;10.88;5.00;;;19.50;99.90;;;;;;5413492;26;20272;-73
2024/04/09 06:49:46;;;;;;;7.20;4.82;;;19.50;99.90;;;;;;5447333;26;20592;-72
2024/04/09 06:52:12;;;;;;;6.43;5.00;;;19.60;99.90;;;;;;5446849;26;20284;-72
2024/04/09 06:54:41;;;;;;;13.73;5.32;;;19.60;99.90;;;;;;5446360;26;20332;-72
2024/04/09 06:57:06;;;;;;;5.97;4.78;;;19.70;99.90;;;;;;5446281;26;20275;-72
2024/04/09 06:59:35;;;;;;;5.18;4.68;;;19.70;99.90;;;;;;5418921;26;20241;-73
2024/04/09 07:02:01;;;;;;;8.10;4.60;;;19.70;99.90;;;;;;5410388;26;20225;-72
2024/04/09 07:04:30;;;;;;;7.45;4.63;;;19.80;99.90;;;;;;5405733;26;20229;-72
2024/04/09 07:06:58;;;;;;;8.35;4.53;;;19.80;99.90;;;;;;5409158;26;20226;-72
2024/04/09 07:09:27;;;;;;;7.45;4.60;;;19.90;99.90;;;;;;5410174;26;20790;-72
2024/04/09 07:11:53;;;;;;;7.78;4.30;;;19.90;99.90;;;;;;5404609;26;20587;-72
2024/04/09 07:14:21;;;;;;;6.93;4.45;;;20.00;99.90;;;;;;5410183;26;20267;-70
2024/04/09 07:16:47;;;;;;;5.72;3.75;;;20.00;99.90;;;;;;5409766;26;20271;-70
2024/04/09 07:19:16;;;;;;;5.20;4.20;;;20.10;99.90;;;;;;5436937;26;20245;-70
2024/04/09 07:21:42;;;;;;;6.28;4.40;;;20.10;99.90;;;;;;5409725;26;20303;-71
2024/04/09 07:24:13;;;;;;;8.23;4.20;;;20.20;99.90;;;;;;5410261;26;20280;-71
2024/04/09 07:26:39;;;;;;;5.82;4.40;;;20.20;99.90;;;;;;5410226;26;20284;-72
2024/04/09 07:29:08;;;;;;;10.48;4.43;;;20.30;99.90;;;;;;5410044;26;20233;-71
2024/04/09 07:31:34;;;;;;;14.63;11.13;;;20.30;99.90;;;;;;5410296;26;20283;-71
2024/04/09 07:34:03;;;;;;;6.55;4.75;;;20.40;99.90;;;;;;5410493;26;20236;-71
2024/04/09 07:36:30;;;;;;;5.45;3.67;;;20.40;99.90;;;;;;5410217;26;20229;-71
2024/04/09 07:38:59;;;;;;;6.25;4.15;;;20.50;99.90;;;;;;5410269;26;20237;-71
2024/04/09 07:41:27;;;;;;;4.05;3.65;;;20.60;99.90;;;;;;5410524;26;20232;-71
2024/04/09 07:43:56;;;;;;;7.32;4.20;;;20.60;99.90;;;;;;5410004;26;20607;-71
2024/04/09 07:46:22;;;;;;;8.32;4.13;;;20.60;99.90;;;;;;5410488;26;20241;-72
2024/04/09 07:48:51;;;;;;;7.53;4.35;;;20.70;99.90;;;;;;5435725;26;20240;-71
2024/04/09 07:51:17;;;;;;;6.72;4.32;;;20.70;99.90;;;;;;5445521;26;20721;-72
2024/04/09 07:53:45;;;;;;;5.47;3.70;;;20.70;99.90;;;;;;5445328;26;20699;-72
2024/04/09 07:56:15;;;;;;;6.57;3.70;;;20.80;99.90;;;;;;5412281;26;20616;-71
2024/04/09 07:58:43;;;;;;;7.57;3.30;;;20.90;99.90;;;;;;5409837;26;20636;-72
2024/04/09 08:01:12;;;;;;;7.43;4.00;;;20.90;99.90;;;;;;5409597;26;20279;-71
2024/04/09 08:03:38;;;;;;;4.93;3.53;;;21.00;99.90;;;;;;5409953;26;20269;-71
2024/04/09 08:06:06;;;;;;;3.10;2.80;;;21.00;99.90;;;;;;5409588;26;20727;-71
2024/04/09 08:08:32;;;;;;;7.47;3.40;;;21.00;99.90;;;;;;5409761;26;20253;-71
2024/04/09 08:11:03;;;;;;;6.50;3.20;;;21.10;99.90;;;;;;5409539;26;20496;-71
2024/04/09 08:13:29;;;;;;;3.65;3.17;;;21.20;99.90;;;;;;5409907;26;20229;-72
2024/04/09 08:16:00;;;;;;;11.60;3.70;;;21.30;99.90;;;;;;5409658;26;20738;-72
2024/04/09 08:18:27;;;;;;;5.15;3.00;;;21.30;99.90;;;;;;5429843;26;20241;-71
2024/04/09 08:20:56;;;;;;;5.13;2.90;;;21.40;99.90;;;;;;5445738;26;20633;-71
2024/04/09 08:23:22;;;;;;;3.40;3.00;;;21.40;99.90;;;;;;5443723;26;20232;-72
2024/04/09 08:25:51;;;;;;;6.03;2.80;;;21.50;99.90;;;;;;5445613;26;20228;-71
2024/04/09 08:28:18;;;;;;;4.93;2.92;;;21.50;99.90;;;;;;5445460;26;20236;-71
2024/04/09 08:30:47;;;;;;;4.82;3.30;;;21.60;99.90;;;;;;5445808;26;20328;-71
2024/04/09 08:33:20;;;;;;;8.48;6.03;;;21.60;99.90;;;;;;5445451;26;20575;-72
2024/04/09 08:35:47;;;;;;;5.18;3.53;;;21.70;99.90;;;;;;5445793;26;20271;-72
2024/04/09 08:38:17;;;;;;;7.57;3.17;;;21.70;99.90;;;;;;5445525;26;20287;-71
2024/04/09 08:40:43;;;;;;;6.20;3.13;;;21.80;99.90;;;;;;5445346;26;20715;-72
2024/04/09 08:43:12;;;;;;;4.38;2.80;;;21.90;99.90;;;;;;5445457;26;20241;-72
2024/04/09 08:45:40;;;;;;;8.88;3.40;;;22.00;99.90;;;;;;5445434;26;20232;-72
2024/04/09 08:48:11;;;;;;;4.72;3.15;;;22.00;99.90;;;;;;5429830;26;20712;-72
2024/04/09 08:50:46;;;;;;;6.72;2.65;;;22.00;99.90;;;;;;5409361;26;20238;-72
2024/04/09 08:53:16;;;;;;;4.18;2.85;;;22.10;99.90;;;;;;5409115;26;20344;-71
2024/04/09 08:55:42;;;;;;;4.15;3.00;;;22.20;99.90;;;;;;5404572;26;20292;-72
2024/04/09 08:58:12;;;;;;;7.05;2.83;;;22.20;99.90;;;;;;5409363;26;20736;-72
2024/04/09 09:00:38;;;;;;;3.58;2.47;;;22.30;99.90;;;;;;5409652;26;21343;-71
2024/04/09 09:03:07;;;;;;;5.28;3.10;;;22.30;99.90;;;;;;5409217;26;20233;-72
2024/04/09 09:05:33;;;;;;;7.53;2.88;;;22.40;99.90;;;;;;5409392;26;20268;-72
2024/04/09 09:08:05;;;;;;;6.05;3.00;;;22.50;99.90;;;;;;5408896;26;20297;-72
2024/04/09 09:10:31;;;;;;;4.45;2.80;;;22.50;99.90;;;;;;5409512;26;20237;-72
2024/04/09 09:13:02;;;;;;;4.57;2.88;;;22.60;99.90;;;;;;5386165;26;20230;-72
2024/04/09 09:15:28;;;;;;;4.70;2.72;;;22.70;99.90;;;;;;5373803;26;20350;-72
2024/04/09 09:17:56;;;;;;;4.90;2.63;;;22.70;99.90;;;;;;5398274;26;20286;-71
2024/04/09 09:20:23;;;;;;;5.03;3.10;;;22.80;99.90;;;;;;5444930;26;20266;-72
2024/04/09 09:22:54;;;;;;;8.98;2.90;;;22.90;99.90;;;;;;5444730;26;20275;-72
2024/04/09 09:25:22;;;;;;;8.48;2.97;;;22.90;99.90;;;;;;5444770;26;20254;-72
2024/04/09 09:27:51;;;;;;;8.77;3.03;;;23.00;99.90;;;;;;5444961;26;20327;-72
2024/04/09 09:30:17;;;;;;;5.15;2.80;;;23.00;99.90;;;;;;5444544;26;20267;-72
2024/04/09 09:32:50;;;;;;;5.45;2.75;;;23.00;99.90;;;;;;5444599;26;20271;-72
2024/04/09 09:35:17;;;;;;;3.28;2.90;;;23.20;99.90;;;;;;5445838;26;20708;-72
2024/04/09 09:37:49;;;;;;;4.93;2.78;;;23.20;99.90;;;;;;5447905;26;20344;-72
2024/04/09 09:40:16;;;;;;;2.92;2.70;;;23.30;99.90;;;;;;5448029;26;20266;-72
2024/04/09 09:42:49;;;;;;;7.10;3.10;;;23.30;99.90;;;;;;5447825;26;20884;-72
2024/04/09 09:45:15;;;;;;;7.68;3.15;;;23.40;99.90;;;;;;5448133;26;20266;-72
2024/04/09 09:47:44;;;;;;;5.90;3.15;;;23.40;99.90;;;;;;5438426;26;20296;-72
2024/04/09 09:50:11;;;;;;;4.88;2.78;;;23.50;99.90;;;;;;5447447;26;20232;-72
2024/04/09 09:52:43;;;;;;;4.40;2.85;;;23.50;99.90;;;;;;5421733;26;20241;-72
2024/04/09 09:55:09;;;;;;;7.50;3.40;;;23.50;99.90;;;;;;5411570;26;20232;-72
2024/04/09 09:57:40;;;;;;;4.65;2.72;;;23.70;99.90;;;;;;5411537;26;20284;-72
2024/04/09 10:00:12;;;;;;;5.05;3.10;;;23.70;99.90;;;;;;5406278;26;20245;-72
2024/04/09 10:02:44;;;;;;;5.35;2.80;;;23.90;99.90;;;;;;5411716;26;20237;-72
2024/04/09 10:05:12;;;;;;;3.40;2.83;;;23.90;99.90;;;;;;5411304;26;20229;-72
2024/04/09 10:07:40;;;;;;;5.47;2.92;;;23.90;99.90;;;;;;5411744;26;20284;-72
2024/04/09 10:10:07;;;;;;;5.90;3.30;;;24.00;99.90;;;;;;5376302;26;20230;-72
2024/04/09 10:12:37;;;;;;;5.50;3.00;;;24.10;99.90;;;;;;5376194;26;20364;-72
2024/04/09 10:15:04;;;;;;;5.68;2.92;;;24.30;99.90;;;;;;5376257;26;20276;-72
2024/04/09 10:20:31;;;;;;;8.55;3.28;;;24.30;99.90;;;;;;5500155;25;20594;-73
2024/04/09 10:23:01;;;;;;;8.85;3.22;;;24.50;99.90;;;;;;5499790;25;20261;-71
2024/04/09 10:25:38;;;;;;;5.20;3.20;;;24.60;99.90;;;;;;5500301;25;20565;-70
2024/04/09 10:28:06;;;;;;;7.57;3.40;;;24.60;99.90;;;;;;5499291;25;20230;-71
2024/04/09 10:30:37;;;;;;;7.57;3.30;;;24.80;99.90;;;;;;5500001;25;20559;-71
2024/04/09 10:33:04;;;;;;;8.00;3.05;;;24.90;99.90;;;;;;5499799;25;20332;-71
2024/04/09 10:35:37;;;;;;;5.03;3.33;;;24.90;99.90;;;;;;5499946;25;20239;-71
2024/04/09 10:38:04;;;;;;;4.07;3.15;;;25.00;99.90;;;;;;5499457;25;20226;-71
2024/04/09 10:40:36;;;;;;;3.75;3.35;;;25.10;99.90;;;;;;5500053;25;20286;-71
2024/04/09 10:43:06;;;;;;;6.30;2.95;;;25.20;99.90;;;;;;5499895;25;20744;-71
2024/04/09 10:45:35;;;;;;;8.73;3.03;;;25.30;99.90;;;;;;5499873;25;20705;-72
2024/04/09 10:48:01;;;;;;;5.22;3.30;;;25.30;99.90;;;;;;5494189;25;20651;-71
2024/04/09 10:50:30;;;;;;;9.80;3.30;;;25.40;99.90;;;;;;5499660;25;20709;-72
2024/04/09 10:52:59;;;;;;;10.27;3.63;;;25.40;99.90;;;;;;5499236;25;20261;-71
2024/04/09 10:55:28;;;;;;;7.18;3.10;;;25.60;99.90;;;;;;5499590;25;20725;-71
2024/04/09 10:57:54;;;;;;;5.75;3.33;;;25.70;99.90;;;;;;5499700;25;20269;-71
2024/04/09 11:00:24;;;;;;;5.68;3.30;;;25.70;99.90;;;;;;5499223;25;20497;-71
2024/04/09 11:02:50;;;;;;;10.65;3.60;;;25.80;99.90;;;;;;5499212;25;20790;-71
2024/04/09 11:05:20;;;;;;;11.23;3.75;;;25.70;99.90;;;;;;5499401;25;20246;-71
2024/04/09 11:07:48;;;;;;;6.07;2.88;;;25.70;99.90;;;;;;5499113;25;20238;-71
2024/04/09 11:10:20;;;;;;;11.45;3.35;;;25.70;99.90;;;;;;5499312;25;20327;-72
2024/04/09 11:12:49;;;;;;;5.90;3.15;;;25.80;99.90;;;;;;5499209;25;21301;-71
2024/04/09 11:15:21;;;;;;;5.65;3.25;;;25.90;99.90;;;;;;5484012;25;20282;-71
2024/04/09 11:17:47;;;;;;;7.28;3.33;;;26.00;99.90;;;;;;5473353;26;20226;-71
2024/04/09 11:20:18;;;;;;;7.30;3.38;;;26.00;99.90;;;;;;5498447;25;20316;-72
2024/04/09 11:22:45;;;;;;;12.63;3.60;;;26.10;99.90;;;;;;5499071;25;20223;-71
2024/04/09 11:25:14;;;;;;;4.65;3.00;;;26.10;99.90;;;;;;5498784;25;20816;-71
2024/04/09 11:27:44;;;;;;;9.98;3.65;;;26.20;99.90;;;;;;5499092;25;20227;-71
2024/04/09 11:30:24;;;;;;;12.38;3.78;;;26.20;99.90;;;;;;5493271;25;20223;-72
2024/04/09 11:32:52;;;;;;;12.88;3.55;;;26.20;99.90;;;;;;5483310;26;20227;-71
2024/04/09 11:35:23;;;;;;;8.50;3.83;;;26.30;99.90;;;;;;5483071;26;20239;-71
2024/04/09 11:37:50;;;;;;;11.80;3.65;;;26.20;99.90;;;;;;5483419;26;20282;-72
2024/04/09 11:40:19;;;;;;;13.73;3.40;;;26.20;99.90;;;;;;5463101;26;20468;-71
2024/04/09 11:42:48;;;;;;;17.73;4.10;;;26.30;99.90;;;;;;5446599;26;20274;-72
2024/04/09 11:45:22;;;;;;;12.18;3.67;;;26.30;99.90;;;;;;5464649;26;20254;-72
2024/04/09 11:47:48;;;;;;;11.57;3.47;;;26.30;99.90;;;;;;5472244;26;20332;-71
2024/04/09 11:50:16;;;;;;;14.10;3.47;;;26.40;99.90;;;;;;5446796;26;20236;-72
2024/04/09 11:52:43;;;;;;;10.63;3.42;;;26.40;99.90;;;;;;5446694;26;20275;-72
2024/04/09 11:55:12;;;;;;;11.98;3.90;;;26.40;99.90;;;;;;5446550;26;20240;-71
2024/04/09 11:57:38;;;;;;;7.57;3.20;;;26.30;99.90;;;;;;5446804;26;20228;-71
2024/04/09 12:00:12;;;;;;;9.55;3.53;;;26.30;99.90;;;;;;5464906;26;20277;-71
2024/04/09 12:02:39;;;;;;;12.82;3.35;;;26.20;99.90;;;;;;5483156;26;20231;-71
2024/04/09 12:05:07;;;;;;;14.98;3.72;;;26.20;99.90;;;;;;5482571;26;20772;-71
2024/04/09 12:07:33;;;;;;;9.25;3.67;;;26.20;99.90;;;;;;5482848;26;20239;-72
2024/04/09 12:10:02;;;;;;;12.20;3.58;;;26.40;99.90;;;;;;5482807;26;20739;-71
2024/04/09 12:12:28;;;;;;;11.30;3.78;;;26.70;99.90;;;;;;5453652;26;20295;-71
2024/04/09 12:14:56;;;;;;;8.65;4.30;;;27.00;99.90;;;;;;5446363;26;20228;-72
2024/04/09 12:17:25;;;;;;;11.02;3.80;;;27.10;99.90;;;;;;5450941;26;20730;-72
2024/04/09 12:19:53;;;;;;;9.50;3.47;;;27.20;99.90;;;;;;5482426;26;20243;-72
2024/04/09 12:22:19;;;;;;;6.25;3.58;;;27.30;99.90;;;;;;5482106;26;20270;-71
2024/04/09 12:24:48;;;;;;;13.02;3.95;;;27.30;99.90;;;;;;5482333;26;20235;-71
2024/04/09 12:27:14;;;;;;;14.13;4.07;;;27.10;99.90;;;;;;5482441;26;20219;-71
2024/04/09 12:29:43;;;;;;;12.50;3.95;;;27.00;99.90;;;;;;5482707;26;20273;-71
2024/04/09 12:32:10;;;;;;;9.15;4.20;;;26.80;99.90;;;;;;5482453;26;20261;-72
2024/04/09 12:34:42;;;;;;;9.60;3.88;;;26.70;99.90;;;;;;5482952;26;20230;-72
2024/04/09 12:37:08;;;;;;;17.00;4.38;;;26.50;99.90;;;;;;5453480;26;20354;-72
2024/04/09 12:39:37;;;;;;;8.20;3.65;;;26.30;99.90;;;;;;5446330;26;20773;-72
2024/04/09 12:42:03;;;;;;;9.45;3.60;;;26.20;99.90;;;;;;5449698;26;20271;-72
2024/04/09 12:44:32;;;;;;;8.00;3.55;;;26.20;99.90;;;;;;5446436;26;20815;-72
2024/04/09 12:46:58;;;;;;;11.82;4.40;;;26.00;99.90;;;;;;5446301;26;20224;-72
2024/04/09 12:49:29;;;;;;;13.13;4.82;;;25.80;99.90;;;;;;5457083;26;20236;-72
2024/04/09 12:51:58;;;;;;;15.27;4.57;;;25.70;99.90;;;;;;5445754;26;20291;-72